sensor_id;sensor_type;location;lat;lon;timestamp;temperature;humidity
67275;DHT22;55463;52.324;5.122;2024-02-15T00:00:14;11.43;99.99
67275;DHT22;55463;52.324;5.122;2024-02-15T00:02:42;11.43;99.99
67275;DHT22;55463;52.324;5.122;2024-02-15T00:05:10;11.43;99.99
67275;DHT22;55463;52.324;5.122;2024-02-15T00:07:35;11.42;99.99
67275;DHT22;55463;52.324;5.122;2024-02-15T00:10:01;11.45;99.99
67275;DHT22;55463;52.324;5.122;2024-02-15T00:12:29;11.43;99.99
67275;DHT22;55463;52.324;5.122;2024-02-15T00:14:55;11.45;99.99
67275;DHT22;55463;52.324;5.122;2024-02-15T00:17:24;11.45;99.99
67275;DHT22;55463;52.324;5.122;2024-02-15T00:19:50;11.46;99.99
67275;DHT22;55463;52.324;5.122;2024-02-15T00:22:15;11.45;99.99
67275;DHT22;55463;52.324;5.122;2024-02-15T00:24:40;11.47;99.99
67275;DHT22;55463;52.324;5.122;2024-02-15T00:27:08;11.47;99.99
67275;DHT22;55463;52.324;5.122;2024-02-15T00:29:33;11.47;99.99
67275;DHT22;55463;52.324;5.122;2024-02-15T00:31:59;11.49;99.99
67275;DHT22;55463;52.324;5.122;2024-02-15T00:34:25;11.49;99.99
67275;DHT22;55463;52.324;5.122;2024-02-15T00:36:52;11.52;99.99
67275;DHT22;55463;52.324;5.122;2024-02-15T00:39:17;11.55;99.99
67275;DHT22;55463;52.324;5.122;2024-02-15T00:41:43;11.52;99.99
67275;DHT22;55463;52.324;5.122;2024-02-15T00:44:11;11.53;99.99
67275;DHT22;55463;52.324;5.122;2024-02-15T00:46:39;11.53;99.99
67275;DHT22;55463;52.324;5.122;2024-02-15T00:49:06;11.51;99.99
67275;DHT22;55463;52.324;5.122;2024-02-15T00:51:35;11.52;99.99
67275;DHT22;55463;52.324;5.122;2024-02-15T00:54:02;11.53;99.99
67275;DHT22;55463;52.324;5.122;2024-02-15T00:56:28;11.49;99.99
67275;DHT22;55463;52.324;5.122;2024-02-15T00:58:55;11.47;99.99
67275;DHT22;55463;52.324;5.122;2024-02-15T01:01:40;11.49;99.99
67275;DHT22;55463;52.324;5.122;2024-02-15T01:04:06;11.49;99.99
67275;DHT22;55463;52.324;5.122;2024-02-15T01:06:31;11.51;99.99
67275;DHT22;55463;52.324;5.122;2024-02-15T01:09:00;11.47;99.99
67275;DHT22;55463;52.324;5.122;2024-02-15T01:11:29;11.47;99.99
67275;DHT22;55463;52.324;5.122;2024-02-15T01:13:57;11.47;99.99
67275;DHT22;55463;52.324;5.122;2024-02-15T01:16:23;11.49;99.99
67275;DHT22;55463;52.324;5.122;2024-02-15T01:18:50;11.51;99.99
67275;DHT22;55463;52.324;5.122;2024-02-15T01:21:15;11.51;99.99
67275;DHT22;55463;52.324;5.122;2024-02-15T01:23:41;11.53;99.99
67275;DHT22;55463;52.324;5.122;2024-02-15T01:26:07;11.53;99.99
67275;DHT22;55463;52.324;5.122;2024-02-15T01:28:33;11.56;99.99
67275;DHT22;55463;52.324;5.122;2024-02-15T01:30:59;11.56;99.99
67275;DHT22;55463;52.324;5.122;2024-02-15T01:33:24;11.55;99.99
67275;DHT22;55463;52.324;5.122;2024-02-15T01:35:49;11.61;99.99
67275;DHT22;55463;52.324;5.122;2024-02-15T01:38:15;11.58;99.99
67275;DHT22;55463;52.324;5.122;2024-02-15T01:40:40;11.61;99.99
67275;DHT22;55463;52.324;5.122;2024-02-15T01:43:05;11.59;99.99
67275;DHT22;55463;52.324;5.122;2024-02-15T01:45:31;11.62;99.99
67275;DHT22;55463;52.324;5.122;2024-02-15T01:47:57;11.61;99.99
67275;DHT22;55463;52.324;5.122;2024-02-15T01:50:23;11.59;99.99
67275;DHT22;55463;52.324;5.122;2024-02-15T01:52:52;11.59;99.99
67275;DHT22;55463;52.324;5.122;2024-02-15T01:55:18;11.62;99.99
67275;DHT22;55463;52.324;5.122;2024-02-15T01:57:44;11.62;99.99
67275;DHT22;55463;52.324;5.122;2024-02-15T02:00:14;11.61;99.99
67275;DHT22;55463;52.324;5.122;2024-02-15T02:02:41;11.62;99.99
67275;DHT22;55463;52.324;5.122;2024-02-15T02:05:07;11.66;99.99
67275;DHT22;55463;52.324;5.122;2024-02-15T02:07:33;11.65;99.99
67275;DHT22;55463;52.324;5.122;2024-02-15T02:09:58;11.63;99.99
67275;DHT22;55463;52.324;5.122;2024-02-15T02:12:24;11.67;99.99
67275;DHT22;55463;52.324;5.122;2024-02-15T02:14:53;11.69;99.99
67275;DHT22;55463;52.324;5.122;2024-02-15T02:17:19;11.67;99.99
67275;DHT22;55463;52.324;5.122;2024-02-15T02:19:45;11.66;99.99
67275;DHT22;55463;52.324;5.122;2024-02-15T02:22:11;11.67;99.99
67275;DHT22;55463;52.324;5.122;2024-02-15T02:24:44;11.63;99.99
67275;DHT22;55463;52.324;5.122;2024-02-15T02:27:15;11.67;99.99
67275;DHT22;55463;52.324;5.122;2024-02-15T02:29:43;11.67;99.99
67275;DHT22;55463;52.324;5.122;2024-02-15T02:32:12;11.67;99.99
67275;DHT22;55463;52.324;5.122;2024-02-15T02:34:38;11.67;99.99
67275;DHT22;55463;52.324;5.122;2024-02-15T02:37:03;11.67;99.99
67275;DHT22;55463;52.324;5.122;2024-02-15T02:39:31;11.67;99.99
67275;DHT22;55463;52.324;5.122;2024-02-15T02:41:57;11.69;99.99
67275;DHT22;55463;52.324;5.122;2024-02-15T02:44:22;11.67;99.99
67275;DHT22;55463;52.324;5.122;2024-02-15T02:46:48;11.66;99.99
67275;DHT22;55463;52.324;5.122;2024-02-15T02:49:13;11.65;99.99
67275;DHT22;55463;52.324;5.122;2024-02-15T02:51:38;11.63;99.99
67275;DHT22;55463;52.324;5.122;2024-02-15T02:54:04;11.69;99.99
67275;DHT22;55463;52.324;5.122;2024-02-15T02:56:32;11.66;99.99
67275;DHT22;55463;52.324;5.122;2024-02-15T02:58:57;11.65;99.99
67275;DHT22;55463;52.324;5.122;2024-02-15T03:01:23;11.63;99.99
67275;DHT22;55463;52.324;5.122;2024-02-15T03:03:55;11.65;99.99
67275;DHT22;55463;52.324;5.122;2024-02-15T03:06:24;11.63;99.99
67275;DHT22;55463;52.324;5.122;2024-02-15T03:08:50;11.62;99.99
67275;DHT22;55463;52.324;5.122;2024-02-15T03:11:19;11.63;99.99
67275;DHT22;55463;52.324;5.122;2024-02-15T03:13:45;11.63;99.99
67275;DHT22;55463;52.324;5.122;2024-02-15T03:16:10;11.65;99.99
67275;DHT22;55463;52.324;5.122;2024-02-15T03:18:35;11.66;99.99
67275;DHT22;55463;52.324;5.122;2024-02-15T03:21:01;11.69;99.99
67275;DHT22;55463;52.324;5.122;2024-02-15T03:23:26;11.69;99.99
67275;DHT22;55463;52.324;5.122;2024-02-15T03:25:52;11.70;99.99
67275;DHT22;55463;52.324;5.122;2024-02-15T03:28:18;11.73;99.99
67275;DHT22;55463;52.324;5.122;2024-02-15T03:30:46;11.73;99.99
67275;DHT22;55463;52.324;5.122;2024-02-15T03:33:12;11.72;99.99
67275;DHT22;55463;52.324;5.122;2024-02-15T03:35:38;11.69;99.99
67275;DHT22;55463;52.324;5.122;2024-02-15T03:38:04;11.73;99.99
67275;DHT22;55463;52.324;5.122;2024-02-15T03:40:29;11.74;99.99
67275;DHT22;55463;52.324;5.122;2024-02-15T03:42:55;11.76;99.99
67275;DHT22;55463;52.324;5.122;2024-02-15T03:45:22;11.73;99.99
67275;DHT22;55463;52.324;5.122;2024-02-15T03:47:53;11.72;99.99
67275;DHT22;55463;52.324;5.122;2024-02-15T03:50:19;11.73;99.99
67275;DHT22;55463;52.324;5.122;2024-02-15T03:52:46;11.70;99.99
67275;DHT22;55463;52.324;5.122;2024-02-15T03:55:12;11.70;99.99
67275;DHT22;55463;52.324;5.122;2024-02-15T03:57:40;11.70;99.99
67275;DHT22;55463;52.324;5.122;2024-02-15T04:00:06;11.72;99.99
67275;DHT22;55463;52.324;5.122;2024-02-15T04:02:33;11.72;99.99
67275;DHT22;55463;52.324;5.122;2024-02-15T04:05:01;11.70;99.99
67275;DHT22;55463;52.324;5.122;2024-02-15T04:07:26;11.70;99.99
67275;DHT22;55463;52.324;5.122;2024-02-15T04:09:52;11.70;99.99
67275;DHT22;55463;52.324;5.122;2024-02-15T04:12:18;11.72;99.99
67275;DHT22;55463;52.324;5.122;2024-02-15T04:14:44;11.70;99.99
67275;DHT22;55463;52.324;5.122;2024-02-15T04:17:10;11.70;99.99
67275;DHT22;55463;52.324;5.122;2024-02-15T04:19:36;11.70;99.99
67275;DHT22;55463;52.324;5.122;2024-02-15T04:22:04;11.67;99.99
67275;DHT22;55463;52.324;5.122;2024-02-15T04:24:35;11.69;99.99
67275;DHT22;55463;52.324;5.122;2024-02-15T04:27:05;11.67;99.99
67275;DHT22;55463;52.324;5.122;2024-02-15T04:29:33;11.69;99.99
67275;DHT22;55463;52.324;5.122;2024-02-15T04:31:58;11.69;99.99
67275;DHT22;55463;52.324;5.122;2024-02-15T04:34:24;11.67;99.99
67275;DHT22;55463;52.324;5.122;2024-02-15T04:36:49;11.67;99.99
67275;DHT22;55463;52.324;5.122;2024-02-15T04:39:16;11.66;99.99
67275;DHT22;55463;52.324;5.122;2024-02-15T04:41:53;11.67;99.99
67275;DHT22;55463;52.324;5.122;2024-02-15T04:44:19;11.66;99.99
67275;DHT22;55463;52.324;5.122;2024-02-15T04:46:48;11.65;99.99
67275;DHT22;55463;52.324;5.122;2024-02-15T04:49:17;11.66;99.99
67275;DHT22;55463;52.324;5.122;2024-02-15T04:51:42;11.67;99.99
67275;DHT22;55463;52.324;5.122;2024-02-15T04:54:09;11.69;99.99
67275;DHT22;55463;52.324;5.122;2024-02-15T04:56:41;11.67;99.99
67275;DHT22;55463;52.324;5.122;2024-02-15T04:59:07;11.66;99.99
67275;DHT22;55463;52.324;5.122;2024-02-15T05:01:40;11.66;99.99
67275;DHT22;55463;52.324;5.122;2024-02-15T05:04:10;11.65;99.99
67275;DHT22;55463;52.324;5.122;2024-02-15T05:06:37;11.67;99.99
67275;DHT22;55463;52.324;5.122;2024-02-15T05:09:03;11.66;99.99
67275;DHT22;55463;52.324;5.122;2024-02-15T05:11:33;11.66;99.99
67275;DHT22;55463;52.324;5.122;2024-02-15T05:14:02;11.66;99.99
67275;DHT22;55463;52.324;5.122;2024-02-15T05:16:29;11.67;99.99
67275;DHT22;55463;52.324;5.122;2024-02-15T05:18:56;11.69;99.99
67275;DHT22;55463;52.324;5.122;2024-02-15T05:21:22;11.66;99.99
67275;DHT22;55463;52.324;5.122;2024-02-15T05:23:47;11.69;99.99
67275;DHT22;55463;52.324;5.122;2024-02-15T05:26:13;11.69;99.99
67275;DHT22;55463;52.324;5.122;2024-02-15T05:28:41;11.69;99.99
67275;DHT22;55463;52.324;5.122;2024-02-15T05:31:13;11.69;99.99
67275;DHT22;55463;52.324;5.122;2024-02-15T05:33:43;11.69;99.99
67275;DHT22;55463;52.324;5.122;2024-02-15T05:36:11;11.69;99.99
67275;DHT22;55463;52.324;5.122;2024-02-15T05:38:36;11.65;99.99
67275;DHT22;55463;52.324;5.122;2024-02-15T05:41:02;11.69;99.99
67275;DHT22;55463;52.324;5.122;2024-02-15T05:43:28;11.67;99.99
67275;DHT22;55463;52.324;5.122;2024-02-15T05:45:54;11.67;99.99
67275;DHT22;55463;52.324;5.122;2024-02-15T05:48:19;11.67;99.99
67275;DHT22;55463;52.324;5.122;2024-02-15T05:50:46;11.67;99.99
67275;DHT22;55463;52.324;5.122;2024-02-15T05:53:12;11.69;99.99
67275;DHT22;55463;52.324;5.122;2024-02-15T05:55:41;11.70;99.99
67275;DHT22;55463;52.324;5.122;2024-02-15T05:58:09;11.73;99.99
67275;DHT22;55463;52.324;5.122;2024-02-15T06:00:36;11.70;99.99
67275;DHT22;55463;52.324;5.122;2024-02-15T06:03:04;11.72;99.99
67275;DHT22;55463;52.324;5.122;2024-02-15T06:05:30;11.72;99.99
67275;DHT22;55463;52.324;5.122;2024-02-15T06:07:55;11.73;99.99
67275;DHT22;55463;52.324;5.122;2024-02-15T06:10:22;11.73;99.99
67275;DHT22;55463;52.324;5.122;2024-02-15T06:12:47;11.72;99.99
67275;DHT22;55463;52.324;5.122;2024-02-15T06:15:13;11.73;99.99
67275;DHT22;55463;52.324;5.122;2024-02-15T06:17:41;11.76;99.99
67275;DHT22;55463;52.324;5.122;2024-02-15T06:20:12;11.73;99.99
67275;DHT22;55463;52.324;5.122;2024-02-15T06:22:39;11.76;99.99
67275;DHT22;55463;52.324;5.122;2024-02-15T06:25:05;11.74;99.99
67275;DHT22;55463;52.324;5.122;2024-02-15T06:27:31;11.73;99.99
67275;DHT22;55463;52.324;5.122;2024-02-15T06:29:57;11.79;99.99
67275;DHT22;55463;52.324;5.122;2024-02-15T06:32:42;11.77;99.99
67275;DHT22;55463;52.324;5.122;2024-02-15T06:35:25;11.79;99.99
67275;DHT22;55463;52.324;5.122;2024-02-15T06:38:09;11.76;99.99
67275;DHT22;55463;52.324;5.122;2024-02-15T06:40:53;11.77;99.99
67275;DHT22;55463;52.324;5.122;2024-02-15T06:43:19;11.76;99.99
67275;DHT22;55463;52.324;5.122;2024-02-15T06:45:45;11.80;99.99
67275;DHT22;55463;52.324;5.122;2024-02-15T06:48:12;11.79;99.99
67275;DHT22;55463;52.324;5.122;2024-02-15T06:50:38;11.77;99.99
67275;DHT22;55463;52.324;5.122;2024-02-15T06:53:03;11.79;99.99
67275;DHT22;55463;52.324;5.122;2024-02-15T06:55:28;11.80;99.99
67275;DHT22;55463;52.324;5.122;2024-02-15T06:57:54;11.80;99.99
67275;DHT22;55463;52.324;5.122;2024-02-15T07:00:20;11.80;99.99
67275;DHT22;55463;52.324;5.122;2024-02-15T07:02:45;11.79;99.99
67275;DHT22;55463;52.324;5.122;2024-02-15T07:05:13;11.77;99.99
67275;DHT22;55463;52.324;5.122;2024-02-15T07:07:38;11.77;99.99
67275;DHT22;55463;52.324;5.122;2024-02-15T07:10:05;11.79;99.99
67275;DHT22;55463;52.324;5.122;2024-02-15T07:12:31;11.77;99.99
67275;DHT22;55463;52.324;5.122;2024-02-15T07:14:57;11.77;99.99
67275;DHT22;55463;52.324;5.122;2024-02-15T07:17:23;11.79;99.99
67275;DHT22;55463;52.324;5.122;2024-02-15T07:19:48;11.76;99.99
67275;DHT22;55463;52.324;5.122;2024-02-15T07:22:16;11.77;99.99
67275;DHT22;55463;52.324;5.122;2024-02-15T07:24:42;11.77;99.99
67275;DHT22;55463;52.324;5.122;2024-02-15T07:27:07;11.76;99.99
67275;DHT22;55463;52.324;5.122;2024-02-15T07:29:34;11.77;99.99
67275;DHT22;55463;52.324;5.122;2024-02-15T07:32:05;11.76;99.99
67275;DHT22;55463;52.324;5.122;2024-02-15T07:34:31;11.74;99.99
67275;DHT22;55463;52.324;5.122;2024-02-15T07:36:58;11.73;99.99
67275;DHT22;55463;52.324;5.122;2024-02-15T07:39:24;11.74;99.99
67275;DHT22;55463;52.324;5.122;2024-02-15T07:41:53;11.77;99.99
67275;DHT22;55463;52.324;5.122;2024-02-15T07:44:20;11.74;99.99
67275;DHT22;55463;52.324;5.122;2024-02-15T07:46:46;11.76;99.99
67275;DHT22;55463;52.324;5.122;2024-02-15T07:49:11;11.76;99.99
67275;DHT22;55463;52.324;5.122;2024-02-15T07:51:37;11.73;99.99
67275;DHT22;55463;52.324;5.122;2024-02-15T07:54:02;11.74;99.99
67275;DHT22;55463;52.324;5.122;2024-02-15T07:56:28;11.74;99.99
67275;DHT22;55463;52.324;5.122;2024-02-15T07:58:54;11.76;99.99
67275;DHT22;55463;52.324;5.122;2024-02-15T08:01:19;11.74;99.99
67275;DHT22;55463;52.324;5.122;2024-02-15T08:03:48;11.76;99.99
67275;DHT22;55463;52.324;5.122;2024-02-15T08:06:15;11.76;99.99
67275;DHT22;55463;52.324;5.122;2024-02-15T08:08:42;11.74;99.99
67275;DHT22;55463;52.324;5.122;2024-02-15T08:11:11;11.74;99.99
67275;DHT22;55463;52.324;5.122;2024-02-15T08:13:49;11.76;99.99
67275;DHT22;55463;52.324;5.122;2024-02-15T08:16:19;11.76;99.99
67275;DHT22;55463;52.324;5.122;2024-02-15T08:18:45;11.77;99.99
67275;DHT22;55463;52.324;5.122;2024-02-15T08:21:14;11.80;99.99
67275;DHT22;55463;52.324;5.122;2024-02-15T08:23:39;11.80;99.99
67275;DHT22;55463;52.324;5.122;2024-02-15T08:26:05;11.79;99.99
67275;DHT22;55463;52.324;5.122;2024-02-15T08:28:30;11.81;99.99
67275;DHT22;55463;52.324;5.122;2024-02-15T08:30:56;11.84;99.99
67275;DHT22;55463;52.324;5.122;2024-02-15T08:33:24;11.81;99.99
67275;DHT22;55463;52.324;5.122;2024-02-15T08:35:50;11.87;99.99
67275;DHT22;55463;52.324;5.122;2024-02-15T08:38:16;11.87;99.99
67275;DHT22;55463;52.324;5.122;2024-02-15T08:40:42;11.94;99.99
67275;DHT22;55463;52.324;5.122;2024-02-15T08:43:09;11.94;99.99
67275;DHT22;55463;52.324;5.122;2024-02-15T08:45:34;11.95;99.99
67275;DHT22;55463;52.324;5.122;2024-02-15T08:48:00;11.95;99.99
67275;DHT22;55463;52.324;5.122;2024-02-15T08:50:33;11.97;99.99
67275;DHT22;55463;52.324;5.122;2024-02-15T08:52:58;11.97;99.99
67275;DHT22;55463;52.324;5.122;2024-02-15T08:55:24;11.98;99.99
67275;DHT22;55463;52.324;5.122;2024-02-15T08:57:52;12.01;99.99
67275;DHT22;55463;52.324;5.122;2024-02-15T09:00:21;12.04;99.99
67275;DHT22;55463;52.324;5.122;2024-02-15T09:02:46;12.05;99.99
67275;DHT22;55463;52.324;5.122;2024-02-15T09:05:13;12.08;99.99
67275;DHT22;55463;52.324;5.122;2024-02-15T09:07:43;12.10;99.99
67275;DHT22;55463;52.324;5.122;2024-02-15T09:10:09;12.10;99.99
67275;DHT22;55463;52.324;5.122;2024-02-15T09:12:38;12.08;99.99
67275;DHT22;55463;52.324;5.122;2024-02-15T09:15:06;12.11;99.99
67275;DHT22;55463;52.324;5.122;2024-02-15T09:17:32;12.13;99.99
67275;DHT22;55463;52.324;5.122;2024-02-15T09:20:01;12.11;99.99
67275;DHT22;55463;52.324;5.122;2024-02-15T09:22:27;12.14;99.99
67275;DHT22;55463;52.324;5.122;2024-02-15T09:24:52;12.10;99.99
67275;DHT22;55463;52.324;5.122;2024-02-15T09:27:17;12.11;99.99
67275;DHT22;55463;52.324;5.122;2024-02-15T09:29:43;12.13;99.99
67275;DHT22;55463;52.324;5.122;2024-02-15T09:32:08;12.14;99.99
67275;DHT22;55463;52.324;5.122;2024-02-15T09:34:37;12.17;99.99
67275;DHT22;55463;52.324;5.122;2024-02-15T09:37:02;12.21;99.99
67275;DHT22;55463;52.324;5.122;2024-02-15T09:39:28;12.20;99.99
67275;DHT22;55463;52.324;5.122;2024-02-15T09:41:53;12.21;99.99
67275;DHT22;55463;52.324;5.122;2024-02-15T09:44:24;12.21;99.99
67275;DHT22;55463;52.324;5.122;2024-02-15T09:47:02;12.22;99.99
67275;DHT22;55463;52.324;5.122;2024-02-15T09:49:29;12.22;99.99
67275;DHT22;55463;52.324;5.122;2024-02-15T09:51:55;12.25;99.99
67275;DHT22;55463;52.324;5.122;2024-02-15T09:54:21;12.25;99.99
67275;DHT22;55463;52.324;5.122;2024-02-15T09:56:50;12.28;99.99
67275;DHT22;55463;52.324;5.122;2024-02-15T09:59:16;12.29;99.99
67275;DHT22;55463;52.324;5.122;2024-02-15T10:01:45;12.31;99.99
67275;DHT22;55463;52.324;5.122;2024-02-15T10:04:13;12.29;99.99
67275;DHT22;55463;52.324;5.122;2024-02-15T10:06:41;12.34;99.99
67275;DHT22;55463;52.324;5.122;2024-02-15T10:09:30;12.35;99.99
67275;DHT22;55463;52.324;5.122;2024-02-15T10:12:00;12.35;99.99
67275;DHT22;55463;52.324;5.122;2024-02-15T10:14:27;12.36;99.99
67275;DHT22;55463;52.324;5.122;2024-02-15T10:16:54;12.39;99.99
67275;DHT22;55463;52.324;5.122;2024-02-15T10:19:23;12.42;99.99
67275;DHT22;55463;52.324;5.122;2024-02-15T10:21:52;12.42;99.99
67275;DHT22;55463;52.324;5.122;2024-02-15T10:24:22;12.45;99.99
67275;DHT22;55463;52.324;5.122;2024-02-15T10:26:50;12.46;99.99
67275;DHT22;55463;52.324;5.122;2024-02-15T10:29:20;12.55;99.99
67275;DHT22;55463;52.324;5.122;2024-02-15T10:31:55;12.53;99.99
67275;DHT22;55463;52.324;5.122;2024-02-15T10:34:21;12.56;99.99
67275;DHT22;55463;52.324;5.122;2024-02-15T10:36:48;12.57;99.99
67275;DHT22;55463;52.324;5.122;2024-02-15T10:39:16;12.59;99.99
67275;DHT22;55463;52.324;5.122;2024-02-15T10:41:46;12.62;99.99
67275;DHT22;55463;52.324;5.122;2024-02-15T10:44:16;12.62;99.99
67275;DHT22;55463;52.324;5.122;2024-02-15T10:46:42;12.62;99.99
67275;DHT22;55463;52.324;5.122;2024-02-15T10:49:08;12.62;99.99
67275;DHT22;55463;52.324;5.122;2024-02-15T10:51:35;12.63;99.99
67275;DHT22;55463;52.324;5.122;2024-02-15T10:54:05;12.69;99.99
67275;DHT22;55463;52.324;5.122;2024-02-15T10:56:37;12.73;99.99
67275;DHT22;55463;52.324;5.122;2024-02-15T10:59:19;12.75;99.99
67275;DHT22;55463;52.324;5.122;2024-02-15T11:01:49;12.73;99.99
67275;DHT22;55463;52.324;5.122;2024-02-15T11:04:20;12.77;99.99
67275;DHT22;55463;52.324;5.122;2024-02-15T11:06:52;12.77;99.99
67275;DHT22;55463;52.324;5.122;2024-02-15T11:09:23;12.77;99.99
67275;DHT22;55463;52.324;5.122;2024-02-15T11:11:51;12.83;99.99
67275;DHT22;55463;52.324;5.122;2024-02-15T11:14:28;12.83;99.99
67275;DHT22;55463;52.324;5.122;2024-02-15T11:16:55;12.86;99.99
67275;DHT22;55463;52.324;5.122;2024-02-15T11:19:44;12.90;99.99
67275;DHT22;55463;52.324;5.122;2024-02-15T11:22:15;12.91;99.99
67275;DHT22;55463;52.324;5.122;2024-02-15T11:24:53;12.97;99.99
67275;DHT22;55463;52.324;5.122;2024-02-15T11:27:45;13.04;99.99
67275;DHT22;55463;52.324;5.122;2024-02-15T11:30:11;13.01;99.99
67275;DHT22;55463;52.324;5.122;2024-02-15T11:32:56;13.07;99.99
67275;DHT22;55463;52.324;5.122;2024-02-15T11:35:24;13.10;99.99
67275;DHT22;55463;52.324;5.122;2024-02-15T11:42:53;13.22;99.99
67275;DHT22;55463;52.324;5.122;2024-02-15T11:45:19;13.26;99.99
67275;DHT22;55463;52.324;5.122;2024-02-15T11:47:49;13.28;99.99
67275;DHT22;55463;52.324;5.122;2024-02-15T11:50:17;13.35;99.99
67275;DHT22;55463;52.324;5.122;2024-02-15T11:52:47;13.38;99.99
67275;DHT22;55463;52.324;5.122;2024-02-15T11:55:17;13.41;99.99
67275;DHT22;55463;52.324;5.122;2024-02-15T11:58:05;13.38;99.99
67275;DHT22;55463;52.324;5.122;2024-02-15T12:00:37;13.48;99.99
67275;DHT22;55463;52.324;5.122;2024-02-15T12:03:21;13.51;99.99
67275;DHT22;55463;52.324;5.122;2024-02-15T12:06:05;13.62;99.99
67275;DHT22;55463;52.324;5.122;2024-02-15T12:08:52;13.66;99.99
67275;DHT22;55463;52.324;5.122;2024-02-15T12:11:36;13.76;99.99
67275;DHT22;55463;52.324;5.122;2024-02-15T12:14:20;13.80;99.99
67275;DHT22;55463;52.324;5.122;2024-02-15T12:17:06;13.88;99.99
67275;DHT22;55463;52.324;5.122;2024-02-15T12:19:51;13.94;99.99
67275;DHT22;55463;52.324;5.122;2024-02-15T12:22:20;14.00;99.99
67275;DHT22;55463;52.324;5.122;2024-02-15T12:24:57;14.05;99.99
67275;DHT22;55463;52.324;5.122;2024-02-15T12:27:23;14.04;99.99
67275;DHT22;55463;52.324;5.122;2024-02-15T12:29:56;14.13;99.99
67275;DHT22;55463;52.324;5.122;2024-02-15T12:32:23;14.14;99.99
67275;DHT22;55463;52.324;5.122;2024-02-15T12:34:50;14.21;99.99
67275;DHT22;55463;52.324;5.122;2024-02-15T12:37:22;14.24;99.99
67275;DHT22;55463;52.324;5.122;2024-02-15T12:39:49;14.28;99.99
67275;DHT22;55463;52.324;5.122;2024-02-15T12:42:15;14.32;99.99
67275;DHT22;55463;52.324;5.122;2024-02-15T12:44:45;14.38;99.99
67275;DHT22;55463;52.324;5.122;2024-02-15T12:47:21;14.42;99.99
67275;DHT22;55463;52.324;5.122;2024-02-15T12:49:47;14.45;99.99
67275;DHT22;55463;52.324;5.122;2024-02-15T12:52:38;14.50;99.99
67275;DHT22;55463;52.324;5.122;2024-02-15T12:55:19;14.49;99.99
67275;DHT22;55463;52.324;5.122;2024-02-15T12:57:49;14.50;99.99
67275;DHT22;55463;52.324;5.122;2024-02-15T13:00:25;14.55;99.99
67275;DHT22;55463;52.324;5.122;2024-02-15T13:02:55;14.65;99.99
67275;DHT22;55463;52.324;5.122;2024-02-15T13:05:22;14.75;99.99
67275;DHT22;55463;52.324;5.122;2024-02-15T13:07:52;14.86;99.99
67275;DHT22;55463;52.324;5.122;2024-02-15T13:10:21;15.00;99.99
67275;DHT22;55463;52.324;5.122;2024-02-15T13:12:52;15.17;99.99
67275;DHT22;55463;52.324;5.122;2024-02-15T13:15:20;15.32;99.99
67275;DHT22;55463;52.324;5.122;2024-02-15T13:17:47;15.45;99.99
67275;DHT22;55463;52.324;5.122;2024-02-15T13:20:25;15.60;99.99
67275;DHT22;55463;52.324;5.122;2024-02-15T13:23:10;15.83;99.57
67275;DHT22;55463;52.324;5.122;2024-02-15T13:25:48;16.05;99.16
67275;DHT22;55463;52.324;5.122;2024-02-15T13:28:14;16.12;99.03
67275;DHT22;55463;52.324;5.122;2024-02-15T13:30:41;16.26;99.20
67275;DHT22;55463;52.324;5.122;2024-02-15T13:33:08;16.55;99.73
67275;DHT22;55463;52.324;5.122;2024-02-15T13:35:34;16.60;98.01
67275;DHT22;55463;52.324;5.122;2024-02-15T13:37:59;16.56;97.40
67275;DHT22;55463;52.324;5.122;2024-02-15T13:40:26;16.67;98.11
67275;DHT22;55463;52.324;5.122;2024-02-15T13:43:01;16.65;97.67
67275;DHT22;55463;52.324;5.122;2024-02-15T13:45:33;16.59;97.41
67275;DHT22;55463;52.324;5.122;2024-02-15T13:48:04;16.70;97.54
67275;DHT22;55463;52.324;5.122;2024-02-15T13:50:32;16.60;97.28
67275;DHT22;55463;52.324;5.122;2024-02-15T13:52:58;16.56;97.35
67275;DHT22;55463;52.324;5.122;2024-02-15T13:55:24;16.45;97.54
67275;DHT22;55463;52.324;5.122;2024-02-15T13:57:51;16.26;96.99
67275;DHT22;55463;52.324;5.122;2024-02-15T14:00:18;16.11;97.03
67275;DHT22;55463;52.324;5.122;2024-02-15T14:02:52;16.14;97.57
67275;DHT22;55463;52.324;5.122;2024-02-15T14:05:25;16.36;97.57
67275;DHT22;55463;52.324;5.122;2024-02-15T14:07:55;16.56;98.01
67275;DHT22;55463;52.324;5.122;2024-02-15T14:10:22;16.56;97.23
67275;DHT22;55463;52.324;5.122;2024-02-15T14:12:48;16.56;96.82
67275;DHT22;55463;52.324;5.122;2024-02-15T14:15:16;16.53;96.07
67275;DHT22;55463;52.324;5.122;2024-02-15T14:17:43;16.46;95.81
67275;DHT22;55463;52.324;5.122;2024-02-15T14:20:09;16.44;95.98
67275;DHT22;55463;52.324;5.122;2024-02-15T14:22:44;16.51;96.85
67275;DHT22;55463;52.324;5.122;2024-02-15T14:25:10;16.60;97.24
67275;DHT22;55463;52.324;5.122;2024-02-15T14:27:38;16.51;95.98
67275;DHT22;55463;52.324;5.122;2024-02-15T14:30:13;16.55;95.34
67275;DHT22;55463;52.324;5.122;2024-02-15T14:32:56;16.48;94.91
67275;DHT22;55463;52.324;5.122;2024-02-15T14:35:28;16.41;95.14
67275;DHT22;55463;52.324;5.122;2024-02-15T14:37:55;16.39;95.61
67275;DHT22;55463;52.324;5.122;2024-02-15T14:40:23;16.17;94.83
67275;DHT22;55463;52.324;5.122;2024-02-15T14:42:48;16.07;95.10
67275;DHT22;55463;52.324;5.122;2024-02-15T14:45:14;16.00;95.24
67275;DHT22;55463;52.324;5.122;2024-02-15T14:47:39;15.91;94.80
67275;DHT22;55463;52.324;5.122;2024-02-15T14:50:07;15.96;95.61
67275;DHT22;55463;52.324;5.122;2024-02-15T14:52:36;15.87;94.87
67275;DHT22;55463;52.324;5.122;2024-02-15T14:55:03;15.82;94.97
67275;DHT22;55463;52.324;5.122;2024-02-15T14:57:31;15.80;95.78
67275;DHT22;55463;52.324;5.122;2024-02-15T14:59:58;15.76;95.32
67275;DHT22;55463;52.324;5.122;2024-02-15T15:02:23;15.73;95.48
67275;DHT22;55463;52.324;5.122;2024-02-15T15:04:48;15.63;94.68
67275;DHT22;55463;52.324;5.122;2024-02-15T15:07:44;15.59;94.91
67275;DHT22;55463;52.324;5.122;2024-02-15T15:10:28;15.56;94.87
67275;DHT22;55463;52.324;5.122;2024-02-15T15:13:12;15.55;95.14
67275;DHT22;55463;52.324;5.122;2024-02-15T15:15:38;15.56;95.65
67275;DHT22;55463;52.324;5.122;2024-02-15T15:18:05;15.53;95.89
67275;DHT22;55463;52.324;5.122;2024-02-15T15:20:31;15.50;95.54
67275;DHT22;55463;52.324;5.122;2024-02-15T15:22:58;15.49;95.28
67275;DHT22;55463;52.324;5.122;2024-02-15T15:25:25;15.45;94.96
67275;DHT22;55463;52.324;5.122;2024-02-15T15:27:53;15.46;95.29
67275;DHT22;55463;52.324;5.122;2024-02-15T15:30:19;15.38;94.39
67275;DHT22;55463;52.324;5.122;2024-02-15T15:32:45;15.38;94.86
67275;DHT22;55463;52.324;5.122;2024-02-15T15:35:12;15.34;95.00
67275;DHT22;55463;52.324;5.122;2024-02-15T15:37:38;15.27;94.32
67275;DHT22;55463;52.324;5.122;2024-02-15T15:40:04;15.25;94.51
67275;DHT22;55463;52.324;5.122;2024-02-15T15:42:33;15.25;95.76